sensor_id;sensor_type;location;lat;lon;timestamp;pressure;altitude;pressure_sealevel;temperature;humidity
59240;BME280;45010;53.640;10.578;2024-02-16T00:00:43;100572.09;;;27.31;32.84
59240;BME280;45010;53.640;10.578;2024-02-16T00:03:46;100586.56;;;27.30;32.51
59240;BME280;45010;53.640;10.578;2024-02-16T00:06:46;100568.28;;;27.21;33.00
59240;BME280;45010;53.640;10.578;2024-02-16T00:09:49;100587.63;;;27.29;32.79
59240;BME280;45010;53.640;10.578;2024-02-16T00:12:49;100592.97;;;27.29;32.59
59240;BME280;45010;53.640;10.578;2024-02-16T00:15:49;100588.16;;;27.31;32.71
59240;BME280;45010;53.640;10.578;2024-02-16T00:18:50;100582.81;;;27.31;33.03
59240;BME280;45010;53.640;10.578;2024-02-16T00:21:51;100575.84;;;27.30;32.43
59240;BME280;45010;53.640;10.578;2024-02-16T00:24:51;100571.84;;;27.32;32.92
59240;BME280;45010;53.640;10.578;2024-02-16T00:27:52;100563.53;;;27.29;32.70
59240;BME280;45010;53.640;10.578;2024-02-16T00:30:53;100572.41;;;27.34;32.56
59240;BME280;45010;53.640;10.578;2024-02-16T00:33:53;100555.53;;;27.34;32.54
59240;BME280;45010;53.640;10.578;2024-02-16T00:36:53;100551.78;;;27.35;32.91
59240;BME280;45010;53.640;10.578;2024-02-16T00:39:54;100552.34;;;27.37;32.74
59240;BME280;45010;53.640;10.578;2024-02-16T00:42:55;100533.25;;;27.28;32.51
59240;BME280;45010;53.640;10.578;2024-02-16T00:45:55;100537.91;;;27.38;32.71
59240;BME280;45010;53.640;10.578;2024-02-16T00:48:56;100530.66;;;27.38;32.67
59240;BME280;45010;53.640;10.578;2024-02-16T00:51:56;100530.66;;;27.38;32.48
59240;BME280;45010;53.640;10.578;2024-02-16T00:54:57;100531.47;;;27.39;32.31
59240;BME280;45010;53.640;10.578;2024-02-16T00:57:57;100533.88;;;27.40;32.31
59240;BME280;45010;53.640;10.578;2024-02-16T01:00:58;100522.88;;;27.37;32.32
59240;BME280;45010;53.640;10.578;2024-02-16T01:03:58;100529.34;;;27.41;32.27
59240;BME280;45010;53.640;10.578;2024-02-16T01:06:59;100509.47;;;27.32;32.41
59240;BME280;45010;53.640;10.578;2024-02-16T01:09:59;100516.50;;;27.43;32.46
59240;BME280;45010;53.640;10.578;2024-02-16T01:13:00;100508.47;;;27.43;32.51
59240;BME280;45010;53.640;10.578;2024-02-16T01:16:00;100505.78;;;27.43;32.46
59240;BME280;45010;53.640;10.578;2024-02-16T01:19:01;100498.81;;;27.42;32.36
59240;BME280;45010;53.640;10.578;2024-02-16T01:22:01;100498.81;;;27.42;32.13
59240;BME280;45010;53.640;10.578;2024-02-16T01:25:02;100496.72;;;27.44;32.11
59240;BME280;45010;53.640;10.578;2024-02-16T01:28:02;100494.03;;;27.44;32.37
59240;BME280;45010;53.640;10.578;2024-02-16T01:31:03;100491.91;;;27.46;32.44
59240;BME280;45010;53.640;10.578;2024-02-16T01:34:03;100489.22;;;27.46;32.02
59240;BME280;45010;53.640;10.578;2024-02-16T01:37:04;100489.22;;;27.46;32.36
59240;BME280;45010;53.640;10.578;2024-02-16T01:40:04;100486.00;;;27.44;32.00
59240;BME280;45010;53.640;10.578;2024-02-16T01:43:06;100473.06;;;27.36;32.38
59240;BME280;45010;53.640;10.578;2024-02-16T01:46:06;100474.66;;;27.37;31.89
59240;BME280;45010;53.640;10.578;2024-02-16T01:49:06;100472.47;;;27.29;32.03
59240;BME280;45010;53.640;10.578;2024-02-16T01:52:08;100488.06;;;27.32;32.21
59240;BME280;45010;53.640;10.578;2024-02-16T01:55:09;100476.44;;;27.21;31.96
59240;BME280;45010;53.640;10.578;2024-02-16T01:58:11;100474.47;;;27.11;32.00
59240;BME280;45010;53.640;10.578;2024-02-16T02:01:11;100493.31;;;27.21;32.11
59240;BME280;45010;53.640;10.578;2024-02-16T02:04:11;100496.47;;;27.18;32.41
59240;BME280;45010;53.640;10.578;2024-02-16T02:07:15;100494.34;;;27.15;32.03
59240;BME280;45010;53.640;10.578;2024-02-16T02:10:16;100480.91;;;27.10;31.93
59240;BME280;45010;53.640;10.578;2024-02-16T02:13:16;100474.94;;;27.03;31.93
59240;BME280;45010;53.640;10.578;2024-02-16T02:16:18;100478.16;;;27.05;32.08
59240;BME280;45010;53.640;10.578;2024-02-16T02:19:19;100469.03;;;27.01;32.37
59240;BME280;45010;53.640;10.578;2024-02-16T02:22:20;100466.06;;;26.97;32.38
59240;BME280;45010;53.640;10.578;2024-02-16T02:25:20;100465.25;;;26.96;32.03
59240;BME280;45010;53.640;10.578;2024-02-16T02:28:21;100466.81;;;26.92;32.22
59240;BME280;45010;53.640;10.578;2024-02-16T02:31:24;100459.25;;;26.89;32.10
59240;BME280;45010;53.640;10.578;2024-02-16T02:34:24;100447.47;;;26.85;32.52
59240;BME280;45010;53.640;10.578;2024-02-16T02:37:24;100438.88;;;26.83;32.20
59240;BME280;45010;53.640;10.578;2024-02-16T02:40:25;100438.31;;;26.81;32.56
59240;BME280;45010;53.640;10.578;2024-02-16T02:43:25;100429.19;;;26.77;32.52
59240;BME280;45010;53.640;10.578;2024-02-16T02:46:26;100430.50;;;26.74;32.29
59240;BME280;45010;53.640;10.578;2024-02-16T02:49:27;100430.19;;;26.70;32.39
59240;BME280;45010;53.640;10.578;2024-02-16T02:52:28;100426.97;;;26.68;32.33
59240;BME280;45010;53.640;10.578;2024-02-16T02:55:28;100425.84;;;26.64;32.67
59240;BME280;45010;53.640;10.578;2024-02-16T02:58:29;100413.25;;;26.59;32.66
59240;BME280;45010;53.640;10.578;2024-02-16T03:01:29;100422.34;;;26.58;32.51
59240;BME280;45010;53.640;10.578;2024-02-16T03:04:29;100417.22;;;26.57;32.33
59240;BME280;45010;53.640;10.578;2024-02-16T03:07:30;100405.97;;;26.55;32.48
59240;BME280;45010;53.640;10.578;2024-02-16T03:10:30;100401.13;;;26.52;32.56
59240;BME280;45010;53.640;10.578;2024-02-16T03:13:34;100390.06;;;26.43;32.82
59240;BME280;45010;53.640;10.578;2024-02-16T03:16:35;100396.78;;;26.45;32.90
59240;BME280;45010;53.640;10.578;2024-02-16T03:19:35;100402.13;;;26.45;32.81
59240;BME280;45010;53.640;10.578;2024-02-16T03:22:36;100408.53;;;26.44;32.84
59240;BME280;45010;53.640;10.578;2024-02-16T03:25:36;100391.13;;;26.42;32.78
59240;BME280;45010;53.640;10.578;2024-02-16T03:28:37;100379.31;;;26.38;32.76
59240;BME280;45010;53.640;10.578;2024-02-16T03:31:37;100390.00;;;26.38;32.87
59240;BME280;45010;53.640;10.578;2024-02-16T03:34:37;100386.78;;;26.36;32.68
59240;BME280;45010;53.640;10.578;2024-02-16T03:37:37;100382.75;;;26.33;32.63
59240;BME280;45010;53.640;10.578;2024-02-16T03:40:38;100374.38;;;26.24;32.43
59240;BME280;45010;53.640;10.578;2024-02-16T03:43:38;100384.88;;;26.31;32.79
59240;BME280;45010;53.640;10.578;2024-02-16T03:46:38;100374.69;;;26.28;33.07
59240;BME280;45010;53.640;10.578;2024-02-16T03:49:39;100371.94;;;26.23;32.84
59240;BME280;45010;53.640;10.578;2024-02-16T03:52:40;100382.16;;;26.26;32.56
59240;BME280;45010;53.640;10.578;2024-02-16T03:55:40;100368.25;;;26.24;32.71
59240;BME280;45010;53.640;10.578;2024-02-16T03:58:41;100367.41;;;26.23;32.87
59240;BME280;45010;53.640;10.578;2024-02-16T04:01:42;100370.31;;;26.22;32.92
59240;BME280;45010;53.640;10.578;2024-02-16T04:04:42;100367.91;;;26.20;33.09
59240;BME280;45010;53.640;10.578;2024-02-16T04:07:43;100354.22;;;26.16;32.95
59240;BME280;45010;53.640;10.578;2024-02-16T04:10:45;100351.28;;;26.18;32.99
59240;BME280;45010;53.640;10.578;2024-02-16T04:13:45;100351.53;;;26.16;32.80
59240;BME280;45010;53.640;10.578;2024-02-16T04:16:45;100346.19;;;26.16;32.89
59240;BME280;45010;53.640;10.578;2024-02-16T04:19:46;100344.59;;;26.15;33.07
59240;BME280;45010;53.640;10.578;2024-02-16T04:22:46;100352.06;;;26.13;32.91
59240;BME280;45010;53.640;10.578;2024-02-16T04:25:47;100362.75;;;26.13;33.10
59240;BME280;45010;53.640;10.578;2024-02-16T04:28:47;100359.25;;;26.13;33.02
59240;BME280;45010;53.640;10.578;2024-02-16T04:31:47;100361.13;;;26.12;33.18
59240;BME280;45010;53.640;10.578;2024-02-16T04:34:48;100362.19;;;26.11;32.91
59240;BME280;45010;53.640;10.578;2024-02-16T04:37:49;100353.34;;;26.11;33.05
59240;BME280;45010;53.640;10.578;2024-02-16T04:40:49;100353.59;;;26.09;32.74
59240;BME280;45010;53.640;10.578;2024-02-16T04:43:49;100350.94;;;26.09;33.20
59240;BME280;45010;53.640;10.578;2024-02-16T04:46:51;100348.19;;;26.04;33.27
59240;BME280;45010;53.640;10.578;2024-02-16T04:49:52;100355.72;;;26.07;33.12
59240;BME280;45010;53.640;10.578;2024-02-16T04:52:52;100356.78;;;26.06;32.89
59240;BME280;45010;53.640;10.578;2024-02-16T04:55:53;100356.78;;;26.06;32.87
59240;BME280;45010;53.640;10.578;2024-02-16T04:58:53;100356.78;;;26.06;33.07
59240;BME280;45010;53.640;10.578;2024-02-16T05:01:53;100349.03;;;26.04;33.29
59240;BME280;45010;53.640;10.578;2024-02-16T05:04:53;100349.03;;;26.04;33.39
59240;BME280;45010;53.640;10.578;2024-02-16T05:07:54;100349.84;;;26.05;33.46
59240;BME280;45010;53.640;10.578;2024-02-16T05:10:54;100342.84;;;26.04;33.15
59240;BME280;45010;53.640;10.578;2024-02-16T05:13:55;100347.41;;;26.03;33.13
59240;BME280;45010;53.640;10.578;2024-02-16T05:16:55;100351.94;;;26.03;33.50
59240;BME280;45010;53.640;10.578;2024-02-16T05:19:55;100350.88;;;26.04;33.23
59240;BME280;45010;53.640;10.578;2024-02-16T05:22:56;100337.50;;;26.04;33.17
59240;BME280;45010;53.640;10.578;2024-02-16T05:25:56;100341.25;;;26.03;33.17
59240;BME280;45010;53.640;10.578;2024-02-16T05:28:57;100338.56;;;26.03;33.08
59240;BME280;45010;53.640;10.578;2024-02-16T05:31:57;100336.34;;;25.95;33.19
59240;BME280;45010;53.640;10.578;2024-02-16T05:34:58;100329.13;;;25.95;32.93
59240;BME280;45010;53.640;10.578;2024-02-16T05:37:58;100344.97;;;26.02;32.86
59240;BME280;45010;53.640;10.578;2024-02-16T05:41:01;100315.41;;;25.86;33.04
59240;BME280;45010;53.640;10.578;2024-02-16T05:44:01;100334.28;;;26.02;33.30
59240;BME280;45010;53.640;10.578;2024-02-16T05:47:01;100325.72;;;26.00;33.05
59240;BME280;45010;53.640;10.578;2024-02-16T05:50:04;100327.34;;;26.01;33.20
59240;BME280;45010;53.640;10.578;2024-02-16T05:53:05;100320.38;;;26.00;32.91
59240;BME280;45010;53.640;10.578;2024-02-16T05:56:06;100317.66;;;25.95;33.00
59240;BME280;45010;53.640;10.578;2024-02-16T05:59:06;100336.41;;;26.00;33.36
59240;BME280;45010;53.640;10.578;2024-02-16T06:02:07;100312.00;;;25.91;33.12
59240;BME280;45010;53.640;10.578;2024-02-16T06:05:07;100324.13;;;25.99;32.90
59240;BME280;45010;53.640;10.578;2024-02-16T06:08:12;100317.66;;;25.95;33.23
59240;BME280;45010;53.640;10.578;2024-02-16T06:11:13;100317.97;;;25.98;33.18
59240;BME280;45010;53.640;10.578;2024-02-16T06:14:13;100321.69;;;25.97;33.36
59240;BME280;45010;53.640;10.578;2024-02-16T06:17:15;100305.06;;;25.90;33.18
59240;BME280;45010;53.640;10.578;2024-02-16T06:20:16;100324.13;;;25.99;33.31
59240;BME280;45010;53.640;10.578;2024-02-16T06:23:17;100334.81;;;25.99;32.87
59240;BME280;45010;53.640;10.578;2024-02-16T06:26:17;100332.13;;;25.99;33.10
59240;BME280;45010;53.640;10.578;2024-02-16T06:29:18;100328.34;;;25.95;33.26
59240;BME280;45010;53.640;10.578;2024-02-16T06:32:21;100334.00;;;25.98;33.16
59240;BME280;45010;53.640;10.578;2024-02-16T06:35:22;100344.69;;;25.98;33.29
59240;BME280;45010;53.640;10.578;2024-02-16T06:38:22;100347.09;;;26.00;33.48
59240;BME280;45010;53.640;10.578;2024-02-16T06:41:22;100340.16;;;25.99;33.43
59240;BME280;45010;53.640;10.578;2024-02-16T06:44:23;100325.91;;;25.93;33.74
59240;BME280;45010;53.640;10.578;2024-02-16T06:47:23;100334.81;;;25.99;33.24
59240;BME280;45010;53.640;10.578;2024-02-16T06:50:25;100341.75;;;26.00;33.65
59240;BME280;45010;53.640;10.578;2024-02-16T06:53:26;100347.09;;;26.00;33.55
59240;BME280;45010;53.640;10.578;2024-02-16T06:56:26;100337.47;;;25.99;33.41
59240;BME280;45010;53.640;10.578;2024-02-16T06:59:27;100338.03;;;26.01;33.10
59240;BME280;45010;53.640;10.578;2024-02-16T07:02:27;100336.41;;;26.00;33.42
59240;BME280;45010;53.640;10.578;2024-02-16T07:05:27;100343.38;;;26.01;33.58
59240;BME280;45010;53.640;10.578;2024-02-16T07:08:28;100348.16;;;25.99;33.32
59240;BME280;45010;53.640;10.578;2024-02-16T07:11:28;100339.09;;;26.00;33.76
59240;BME280;45010;53.640;10.578;2024-02-16T07:14:29;100339.09;;;26.00;33.44
59240;BME280;45010;53.640;10.578;2024-02-16T07:17:29;100346.28;;;25.99;33.44
59240;BME280;45010;53.640;10.578;2024-02-16T07:20:29;100349.50;;;26.01;33.49
59240;BME280;45010;53.640;10.578;2024-02-16T07:23:30;100332.63;;;25.96;33.50
59240;BME280;45010;53.640;10.578;2024-02-16T07:26:30;100343.38;;;26.01;33.56
59240;BME280;45010;53.640;10.578;2024-02-16T07:29:30;100332.63;;;25.96;33.70
59240;BME280;45010;53.640;10.578;2024-02-16T07:32:31;100341.75;;;26.00;33.67
59240;BME280;45010;53.640;10.578;2024-02-16T07:35:31;100344.44;;;26.00;33.52
59240;BME280;45010;53.640;10.578;2024-02-16T07:38:32;100347.09;;;26.00;33.37
59240;BME280;45010;53.640;10.578;2024-02-16T07:41:32;100348.16;;;25.99;33.61
59240;BME280;45010;53.640;10.578;2024-02-16T07:44:32;100346.03;;;26.01;33.43
59240;BME280;45010;53.640;10.578;2024-02-16T07:47:33;100357.78;;;26.00;33.42
59240;BME280;45010;53.640;10.578;2024-02-16T07:50:33;100329.34;;;25.88;33.22
59240;BME280;45010;53.640;10.578;2024-02-16T07:53:33;100350.84;;;25.99;33.43
59240;BME280;45010;53.640;10.578;2024-02-16T07:56:34;100347.09;;;26.00;33.37
59240;BME280;45010;53.640;10.578;2024-02-16T08:03:44;100351.88;;;25.98;33.37
59240;BME280;45010;53.640;10.578;2024-02-16T08:06:45;100347.34;;;25.98;33.15
59240;BME280;45010;53.640;10.578;2024-02-16T08:09:48;100340.09;;;25.94;33.27
59240;BME280;45010;53.640;10.578;2024-02-16T08:12:49;100349.19;;;25.98;33.78
59240;BME280;45010;53.640;10.578;2024-02-16T08:15:49;100344.69;;;25.98;33.52
59240;BME280;45010;53.640;10.578;2024-02-16T08:18:52;100339.56;;;25.97;33.09
59240;BME280;45010;53.640;10.578;2024-02-16T08:21:52;100349.19;;;25.98;33.35
59240;BME280;45010;53.640;10.578;2024-02-16T08:24:52;100352.94;;;25.97;33.64
59240;BME280;45010;53.640;10.578;2024-02-16T08:27:52;100352.94;;;25.97;33.45
59240;BME280;45010;53.640;10.578;2024-02-16T08:30:53;100342.25;;;25.97;33.24
59240;BME280;45010;53.640;10.578;2024-02-16T08:33:53;100335.81;;;25.92;33.06
59240;BME280;45010;53.640;10.578;2024-02-16T08:36:54;100336.91;;;25.97;33.50
59240;BME280;45010;53.640;10.578;2024-02-16T08:39:55;100336.91;;;25.97;33.26
59240;BME280;45010;53.640;10.578;2024-02-16T08:42:55;100330.50;;;25.98;33.60
59240;BME280;45010;53.640;10.578;2024-02-16T08:45:56;100326.22;;;25.97;33.10
59240;BME280;45010;53.640;10.578;2024-02-16T08:48:56;100325.16;;;25.98;33.24
59240;BME280;45010;53.640;10.578;2024-02-16T08:51:56;100320.88;;;25.97;33.36
59240;BME280;45010;53.640;10.578;2024-02-16T08:54:57;100310.19;;;25.97;33.43
59240;BME280;45010;53.640;10.578;2024-02-16T08:57:57;100311.00;;;25.97;33.10
59240;BME280;45010;53.640;10.578;2024-02-16T09:00:58;100310.19;;;25.97;33.19
59240;BME280;45010;53.640;10.578;2024-02-16T09:03:58;100285.47;;;25.84;33.36
59240;BME280;45010;53.640;10.578;2024-02-16T09:06:59;100312.84;;;25.97;33.34
59240;BME280;45010;53.640;10.578;2024-02-16T09:09:59;100319.25;;;25.96;33.20
59240;BME280;45010;53.640;10.578;2024-02-16T09:13:00;100301.50;;;25.84;33.44
59240;BME280;45010;53.640;10.578;2024-02-16T09:16:02;100315.78;;;25.95;33.51
59240;BME280;45010;53.640;10.578;2024-02-16T09:19:02;100316.84;;;25.94;33.52
59240;BME280;45010;53.640;10.578;2024-02-16T09:22:03;100318.72;;;25.94;33.58
59240;BME280;45010;53.640;10.578;2024-02-16T09:25:03;100321.38;;;25.94;33.52
59240;BME280;45010;53.640;10.578;2024-02-16T09:28:04;100326.72;;;25.94;33.52
59240;BME280;45010;53.640;10.578;2024-02-16T09:31:04;100326.72;;;25.94;33.17
59240;BME280;45010;53.640;10.578;2024-02-16T09:34:04;100320.81;;;25.91;33.17
59240;BME280;45010;53.640;10.578;2024-02-16T09:37:05;100340.09;;;25.94;33.45
59240;BME280;45010;53.640;10.578;2024-02-16T09:40:06;100325.13;;;25.92;33.37
59240;BME280;45010;53.640;10.578;2024-02-16T09:43:06;100312.69;;;25.81;33.09
59240;BME280;45010;53.640;10.578;2024-02-16T09:46:08;100325.13;;;25.92;33.45
59240;BME280;45010;53.640;10.578;2024-02-16T09:49:08;100322.44;;;25.92;32.99
59240;BME280;45010;53.640;10.578;2024-02-16T09:52:10;100320.56;;;25.93;33.28
59240;BME280;45010;53.640;10.578;2024-02-16T09:55:14;100324.06;;;25.94;33.28
59240;BME280;45010;53.640;10.578;2024-02-16T09:58:16;100319.78;;;25.92;33.25
59240;BME280;45010;53.640;10.578;2024-02-16T10:01:19;100317.09;;;25.92;33.29
59240;BME280;45010;53.640;10.578;2024-02-16T10:04:23;100308.28;;;25.92;33.21
59240;BME280;45010;53.640;10.578;2024-02-16T10:07:32;100317.09;;;25.92;33.33
59240;BME280;45010;53.640;10.578;2024-02-16T10:10:33;100321.88;;;25.90;33.48
59240;BME280;45010;53.640;10.578;2024-02-16T10:13:37;100327.22;;;25.90;33.20
59240;BME280;45010;53.640;10.578;2024-02-16T10:16:37;100326.44;;;25.90;33.33
59240;BME280;45010;53.640;10.578;2024-02-16T10:19:38;100331.78;;;25.90;33.28
59240;BME280;45010;53.640;10.578;2024-02-16T10:22:41;100329.34;;;25.88;33.70
59240;BME280;45010;53.640;10.578;2024-02-16T10:25:41;100330.94;;;25.89;33.16
59240;BME280;45010;53.640;10.578;2024-02-16T10:28:42;100329.34;;;25.88;33.43
59240;BME280;45010;53.640;10.578;2024-02-16T10:31:44;100332.56;;;25.90;33.49
59240;BME280;45010;53.640;10.578;2024-02-16T10:34:45;100332.56;;;25.90;33.20
59240;BME280;45010;53.640;10.578;2024-02-16T10:37:47;100331.78;;;25.90;33.39
59240;BME280;45010;53.640;10.578;2024-02-16T10:40:48;100324.47;;;25.85;33.43
59240;BME280;45010;53.640;10.578;2024-02-16T10:43:51;100323.19;;;25.88;33.19
59240;BME280;45010;53.640;10.578;2024-02-16T10:46:53;100325.59;;;25.89;33.34
59240;BME280;45010;53.640;10.578;2024-02-16T10:49:53;100324.00;;;25.88;33.12
59240;BME280;45010;53.640;10.578;2024-02-16T10:52:55;100330.94;;;25.89;33.41
59240;BME280;45010;53.640;10.578;2024-02-16T10:55:58;100330.94;;;25.89;33.52
59240;BME280;45010;53.640;10.578;2024-02-16T10:59:06;100334.69;;;25.88;33.04
59240;BME280;45010;53.640;10.578;2024-02-16T11:02:07;100336.28;;;25.89;33.48
59240;BME280;45010;53.640;10.578;2024-02-16T11:05:08;100329.03;;;25.85;33.14
59240;BME280;45010;53.640;10.578;2024-02-16T11:08:13;100330.94;;;25.89;33.35
59240;BME280;45010;53.640;10.578;2024-02-16T11:11:22;100334.69;;;25.88;33.48
59240;BME280;45010;53.640;10.578;2024-02-16T11:14:23;100336.06;;;25.91;33.95
59240;BME280;45010;53.640;10.578;2024-02-16T11:17:24;100327.22;;;25.90;33.93
59240;BME280;45010;53.640;10.578;2024-02-16T11:20:25;100331.44;;;25.86;33.90
59240;BME280;45010;53.640;10.578;2024-02-16T11:23:29;100317.28;;;25.86;33.91
59240;BME280;45010;53.640;10.578;2024-02-16T11:26:30;100327.78;;;25.92;33.95
59240;BME280;45010;53.640;10.578;2024-02-16T11:29:36;100324.13;;;25.99;34.03
59240;BME280;45010;53.640;10.578;2024-02-16T11:32:38;100319.09;;;26.02;34.02
59240;BME280;45010;53.640;10.578;2024-02-16T11:35:40;100319.63;;;26.04;33.82
59240;BME280;45010;53.640;10.578;2024-02-16T11:38:41;100315.66;;;26.07;33.73
59240;BME280;45010;53.640;10.578;2024-02-16T11:41:41;100306.88;;;26.12;33.76
59240;BME280;45010;53.640;10.578;2024-02-16T11:44:51;100308.78;;;26.16;33.65
59240;BME280;45010;53.640;10.578;2024-02-16T11:48:02;100302.94;;;26.19;33.53
59240;BME280;45010;53.640;10.578;2024-02-16T11:51:03;100291.44;;;26.19;33.63
59240;BME280;45010;53.640;10.578;2024-02-16T11:54:04;100289.66;;;26.25;33.57
59240;BME280;45010;53.640;10.578;2024-02-16T11:57:05;100282.69;;;26.24;33.13
59240;BME280;45010;53.640;10.578;2024-02-16T12:00:06;100297.72;;;26.30;33.44
59240;BME280;45010;53.640;10.578;2024-02-16T12:03:08;100314.31;;;26.32;33.21
59240;BME280;45010;53.640;10.578;2024-02-16T12:06:09;100295.59;;;26.32;32.95
59240;BME280;45010;53.640;10.578;2024-02-16T12:09:19;100311.63;;;26.32;32.67
59240;BME280;45010;53.640;10.578;2024-02-16T12:12:21;100315.38;;;26.31;33.16
59240;BME280;45010;53.640;10.578;2024-02-16T12:15:22;100319.13;;;26.30;32.89
59240;BME280;45010;53.640;10.578;2024-02-16T12:18:26;100285.84;;;26.21;32.94
59240;BME280;45010;53.640;10.578;2024-02-16T12:21:30;100310.53;;;26.28;32.86
59240;BME280;45010;53.640;10.578;2024-02-16T12:24:30;100314.00;;;26.28;33.15
59240;BME280;45010;53.640;10.578;2024-02-16T12:27:31;100317.50;;;26.29;33.04
59240;BME280;45010;53.640;10.578;2024-02-16T12:30:31;100314.56;;;26.30;33.24
59240;BME280;45010;53.640;10.578;2024-02-16T12:33:32;100314.56;;;26.30;33.09
59240;BME280;45010;53.640;10.578;2024-02-16T12:36:32;100313.78;;;26.30;33.44
59240;BME280;45010;53.640;10.578;2024-02-16T12:39:34;100315.38;;;26.31;33.09
59240;BME280;45010;53.640;10.578;2024-02-16T12:42:34;100315.38;;;26.31;32.96
59240;BME280;45010;53.640;10.578;2024-02-16T12:45:34;100315.91;;;26.33;33.37
59240;BME280;45010;53.640;10.578;2024-02-16T12:48:35;100308.97;;;26.32;33.04
59240;BME280;45010;53.640;10.578;2024-02-16T12:51:35;100307.91;;;26.33;32.84
59240;BME280;45010;53.640;10.578;2024-02-16T12:54:36;100314.06;;;26.34;32.91
59240;BME280;45010;53.640;10.578;2024-02-16T12:57:36;100309.22;;;26.30;33.44
59240;BME280;45010;53.640;10.578;2024-02-16T13:00:36;100318.09;;;26.36;33.29
59240;BME280;45010;53.640;10.578;2024-02-16T13:03:38;100243.97;;;25.99;33.14
59240;BME280;45010;53.640;10.578;2024-02-16T13:06:39;100306.09;;;26.39;33.08
59240;BME280;45010;53.640;10.578;2024-02-16T13:09:39;100313.84;;;26.40;33.01
59240;BME280;45010;53.640;10.578;2024-02-16T13:12:40;100317.09;;;26.42;33.05
59240;BME280;45010;53.640;10.578;2024-02-16T13:15:43;100291.06;;;26.32;33.16
59240;BME280;45010;53.640;10.578;2024-02-16T13:18:43;100319.81;;;26.48;32.77
59240;BME280;45010;53.640;10.578;2024-02-16T13:21:44;100323.53;;;26.46;33.13
59240;BME280;45010;53.640;10.578;2024-02-16T13:24:44;100322.50;;;26.48;33.21
59240;BME280;45010;53.640;10.578;2024-02-16T13:27:45;100326.78;;;26.49;33.29
59240;BME280;45010;53.640;10.578;2024-02-16T13:30:45;100325.69;;;26.50;33.08
59240;BME280;45010;53.640;10.578;2024-02-16T13:33:45;100329.44;;;26.49;33.16
59240;BME280;45010;53.640;10.578;2024-02-16T13:36:46;100340.44;;;26.52;33.40
59240;BME280;45010;53.640;10.578;2024-02-16T13:39:46;100333.19;;;26.53;33.28
59240;BME280;45010;53.640;10.578;2024-02-16T13:42:46;100328.44;;;26.55;33.22
59240;BME280;45010;53.640;10.578;2024-02-16T13:45:50;100330.28;;;26.54;32.96
59240;BME280;45010;53.640;10.578;2024-02-16T13:48:51;100330.03;;;26.56;33.35
59240;BME280;45010;53.640;10.578;2024-02-16T13:51:51;100335.19;;;26.63;33.04
59240;BME280;45010;53.640;10.578;2024-02-16T13:54:52;100340.25;;;26.64;33.34
59240;BME280;45010;53.640;10.578;2024-02-16T13:57:52;100342.94;;;26.64;33.23
59240;BME280;45010;53.640;10.578;2024-02-16T14:00:53;100342.94;;;26.64;33.00
59240;BME280;45010;53.640;10.578;2024-02-16T14:03:53;100338.16;;;26.66;33.36
59240;BME280;45010;53.640;10.578;2024-02-16T14:06:53;100331.69;;;26.62;33.25
59240;BME280;45010;53.640;10.578;2024-02-16T14:09:54;100342.97;;;26.69;33.06
59240;BME280;45010;53.640;10.578;2024-02-16T14:12:54;100343.03;;;26.75;33.25
59240;BME280;45010;53.640;10.578;2024-02-16T14:15:54;100351.34;;;26.78;33.25
59240;BME280;45010;53.640;10.578;2024-02-16T14:18:55;100352.66;;;26.76;33.00
59240;BME280;45010;53.640;10.578;2024-02-16T14:21:56;100353.25;;;26.83;33.39
59240;BME280;45010;53.640;10.578;2024-02-16T14:24:56;100361.84;;;26.85;32.87
59240;BME280;45010;53.640;10.578;2024-02-16T14:27:56;100356.50;;;26.85;32.85
59240;BME280;45010;53.640;10.578;2024-02-16T14:30:58;100364.28;;;26.86;32.69
59240;BME280;45010;53.640;10.578;2024-02-16T14:33:59;100351.09;;;26.80;32.97
59240;BME280;45010;53.640;10.578;2024-02-16T14:36:59;100359.16;;;26.85;33.22
59240;BME280;45010;53.640;10.578;2024-02-16T14:39:59;100362.91;;;26.89;32.70
59240;BME280;45010;53.640;10.578;2024-02-16T14:43:01;100354.88;;;26.84;32.68
59240;BME280;45010;53.640;10.578;2024-02-16T14:46:01;100363.19;;;26.88;32.95
59240;BME280;45010;53.640;10.578;2024-02-16T14:49:04;100364.28;;;26.86;33.07
59240;BME280;45010;53.640;10.578;2024-02-16T14:52:08;100374.16;;;26.86;33.07
59240;BME280;45010;53.640;10.578;2024-02-16T14:55:09;100373.63;;;26.84;32.87
59240;BME280;45010;53.640;10.578;2024-02-16T14:58:10;100377.06;;;26.84;32.79
59240;BME280;45010;53.640;10.578;2024-02-16T15:01:11;100352.59;;;26.70;32.78
59240;BME280;45010;53.640;10.578;2024-02-16T15:04:12;100380.00;;;26.83;32.56
59240;BME280;45010;53.640;10.578;2024-02-16T15:07:12;100378.38;;;26.82;32.51
59240;BME280;45010;53.640;10.578;2024-02-16T15:10:12;100382.38;;;26.79;32.88
59240;BME280;45010;53.640;10.578;2024-02-16T15:13:13;100391.72;;;26.77;32.66
59240;BME280;45010;53.640;10.578;2024-02-16T15:16:13;100392.25;;;26.73;32.78
59240;BME280;45010;53.640;10.578;2024-02-16T15:19:13;100398.09;;;26.70;33.26
59240;BME280;45010;53.640;10.578;2024-02-16T15:22:14;100402.66;;;26.70;33.45
59240;BME280;45010;53.640;10.578;2024-02-16T15:25:14;100401.81;;;26.69;33.56
59240;BME280;45010;53.640;10.578;2024-02-16T15:28:15;100405.03;;;26.66;33.70
59240;BME280;45010;53.640;10.578;2024-02-16T15:31:15;100411.75;;;26.69;33.35
59240;BME280;45010;53.640;10.578;2024-02-16T15:34:15;100417.88;;;26.69;33.53
59240;BME280;45010;53.640;10.578;2024-02-16T15:37:16;100410.44;;;26.71;33.32